createdAt,value
2022-08-23T00:00:12.959Z,51.111210
2022-08-23T00:01:08.869Z,51.111225
2022-08-23T00:02:08.261Z,51.111206
2022-08-23T00:03:08.825Z,51.111202
2022-08-23T00:04:07.799Z,51.111217
2022-08-23T00:05:09.852Z,51.111252
2022-08-23T00:06:07.741Z,51.111279
2022-08-23T00:07:07.897Z,51.111286
2022-08-23T00:08:07.815Z,51.111221
2022-08-23T00:09:07.827Z,51.111229
2022-08-23T00:10:07.792Z,51.111267
2022-08-23T00:11:07.800Z,51.111259
2022-08-23T00:12:07.847Z,51.111237
2022-08-23T00:13:07.774Z,51.111256
2022-08-23T00:14:07.776Z,51.111286
2022-08-23T00:15:07.970Z,51.111279
2022-08-23T00:16:07.798Z,51.111282
2022-08-23T00:17:07.765Z,51.111263
2022-08-23T00:18:07.785Z,51.111282
2022-08-23T00:19:07.754Z,51.111305
2022-08-23T00:20:08.776Z,51.111290
2022-08-23T00:21:08.734Z,51.111290
2022-08-23T00:22:07.697Z,51.111313
2022-08-23T00:23:07.765Z,51.111286
2022-08-23T00:24:08.740Z,51.111244
2022-08-23T00:25:08.696Z,51.111221
2022-08-23T00:26:07.705Z,51.111301
2022-08-23T00:27:07.709Z,51.111290
2022-08-23T00:28:14.686Z,51.111267
2022-08-23T00:29:08.701Z,51.111252
2022-08-23T00:30:07.662Z,51.111271
2022-08-23T00:31:07.641Z,51.111271
2022-08-23T00:32:07.674Z,51.111328
2022-08-23T00:33:08.329Z,51.111298
2022-08-23T00:34:07.659Z,51.111313
2022-08-23T00:35:07.649Z,51.111317
2022-08-23T00:36:07.631Z,51.111256
2022-08-23T00:37:07.636Z,51.111286
2022-08-23T00:38:32.590Z,51.111263
2022-08-23T00:39:08.539Z,51.111290
2022-08-23T00:40:07.642Z,51.111298
2022-08-23T00:41:07.578Z,51.111294
2022-08-23T00:42:07.513Z,51.111271
2022-08-23T00:43:07.524Z,51.111290
2022-08-23T00:44:07.508Z,51.111309
2022-08-23T00:45:07.494Z,51.111305
2022-08-23T00:46:07.505Z,51.111309
2022-08-23T00:47:07.507Z,51.111305
2022-08-23T00:48:07.486Z,51.111294
2022-08-23T00:49:07.482Z,51.111332
2022-08-23T00:50:23.656Z,51.111343
2022-08-23T00:51:08.474Z,51.111298
2022-08-23T00:52:07.447Z,51.111275
2022-08-23T00:53:07.425Z,51.111263
2022-08-23T00:54:07.450Z,51.111263
2022-08-23T00:55:07.447Z,51.111259
2022-08-23T00:56:07.454Z,51.111279
2022-08-23T00:57:07.514Z,51.111298
2022-08-23T00:58:07.537Z,51.111305
2022-08-23T00:59:07.520Z,51.111317
2022-08-23T01:00:07.485Z,51.111324
2022-08-23T01:01:07.523Z,51.111309
2022-08-23T01:02:07.582Z,51.111301
2022-08-23T01:03:07.474Z,51.111294
2022-08-23T01:04:07.502Z,51.111298
2022-08-23T01:05:07.486Z,51.111294
2022-08-23T01:06:07.494Z,51.111317
2022-08-23T01:07:07.415Z,51.111328
2022-08-23T01:08:07.383Z,51.111317
2022-08-23T01:09:07.372Z,51.111332
2022-08-23T01:10:07.425Z,51.111328
2022-08-23T01:11:08.839Z,51.111336
2022-08-23T01:12:07.369Z,51.111351
2022-08-23T01:13:07.343Z,51.111305
2022-08-23T01:14:07.346Z,51.111317
2022-08-23T01:15:07.369Z,51.111309
2022-08-23T01:16:07.360Z,51.111320
2022-08-23T01:17:07.374Z,51.111336
2022-08-23T01:18:07.355Z,51.111324
2022-08-23T01:19:07.316Z,51.111309
2022-08-23T01:20:07.315Z,51.111221
2022-08-23T01:21:10.502Z,51.111259
2022-08-23T01:22:07.294Z,51.111320
2022-08-23T01:23:07.317Z,51.111343
2022-08-23T01:24:07.275Z,51.111340
2022-08-23T01:25:08.908Z,51.111301
2022-08-23T01:26:08.277Z,51.111305
2022-08-23T01:27:07.323Z,51.111305
2022-08-23T01:28:07.149Z,51.111290
2022-08-23T01:29:07.179Z,51.111290
2022-08-23T01:30:07.177Z,51.111290
2022-08-23T01:31:07.291Z,51.111267
2022-08-23T01:32:07.233Z,51.111282
2022-08-23T01:33:07.213Z,51.111286
2022-08-23T01:34:07.210Z,51.111301
2022-08-23T01:35:07.211Z,51.111298
2022-08-23T01:36:09.865Z,51.111279
2022-08-23T01:37:07.141Z,51.111286
2022-08-23T01:38:07.159Z,51.111286
2022-08-23T01:39:07.191Z,51.111279
2022-08-23T01:40:08.197Z,51.111298
2022-08-23T01:41:07.151Z,51.111282
2022-08-23T01:42:07.691Z,51.111290
2022-08-23T01:43:07.145Z,51.111309
2022-08-23T01:44:07.148Z,51.111298
2022-08-23T01:45:07.119Z,51.111286
2022-08-23T01:46:07.173Z,51.111290
2022-08-23T01:47:07.141Z,51.111290
2022-08-23T01:48:07.181Z,51.111259
2022-08-23T01:49:08.457Z,51.111301
2022-08-23T01:50:08.114Z,51.111298
2022-08-23T01:51:07.076Z,51.111313
2022-08-23T01:52:07.114Z,51.111290
2022-08-23T01:53:07.045Z,51.111305
2022-08-23T01:54:07.039Z,51.111275
2022-08-23T01:55:07.032Z,51.111271
2022-08-23T01:56:07.084Z,51.111275
2022-08-23T01:57:07.065Z,51.111282
2022-08-23T01:58:06.999Z,51.111305
2022-08-23T01:59:07.020Z,51.111290
2022-08-23T02:00:07.000Z,51.111279
2022-08-23T02:01:06.923Z,51.111279
2022-08-23T02:02:07.060Z,51.111256
2022-08-23T02:03:06.967Z,51.111282
2022-08-23T02:04:06.982Z,51.111279
2022-08-23T02:05:06.984Z,51.111256
2022-08-23T02:06:06.953Z,51.111279
2022-08-23T02:07:07.035Z,51.111275
2022-08-23T02:08:06.933Z,51.111294
2022-08-23T02:09:17.652Z,51.111343
2022-08-23T02:10:07.944Z,51.111267
2022-08-23T02:11:06.926Z,51.111252
2022-08-23T02:12:06.970Z,51.111286
2022-08-23T02:13:06.953Z,51.111294
2022-08-23T02:14:06.794Z,51.111332
2022-08-23T02:15:06.886Z,51.111313
2022-08-23T02:16:06.817Z,51.111324
2022-08-23T02:17:06.795Z,51.111320
2022-08-23T02:18:06.880Z,51.111290
2022-08-23T02:19:06.861Z,51.111275
2022-08-23T02:20:06.859Z,51.111309
2022-08-23T02:22:06.859Z,51.111290
2022-08-23T02:23:06.906Z,51.111313
2022-08-23T02:24:06.810Z,51.111301
2022-08-23T02:25:06.839Z,51.111214
2022-08-23T02:26:06.854Z,51.111229
2022-08-23T02:27:06.788Z,51.111275
2022-08-23T02:28:06.838Z,51.111294
2022-08-23T02:29:06.798Z,51.111279
2022-08-23T02:30:06.859Z,51.111263
2022-08-23T02:31:06.766Z,51.111252
2022-08-23T02:32:06.746Z,51.111256
2022-08-23T02:33:06.750Z,51.111271
2022-08-23T02:34:06.788Z,51.111294
2022-08-23T02:35:06.748Z,51.111279
2022-08-23T02:36:06.798Z,51.111294
2022-08-23T02:37:06.724Z,51.111259
2022-08-23T02:38:06.695Z,51.111298
2022-08-23T02:39:06.784Z,51.111309
2022-08-23T02:40:06.758Z,51.111328
2022-08-23T02:41:06.697Z,51.111301
2022-08-23T02:42:06.675Z,51.111290
2022-08-23T02:43:06.699Z,51.111347
2022-08-23T02:44:06.692Z,51.111351
2022-08-23T02:45:06.697Z,51.111332
2022-08-23T02:46:06.669Z,51.111320
2022-08-23T02:47:06.679Z,51.111340
2022-08-23T02:48:06.659Z,51.111366
2022-08-23T02:49:06.682Z,51.111347
2022-08-23T02:50:06.687Z,51.111313
2022-08-23T02:51:06.670Z,51.111313
2022-08-23T02:52:06.630Z,51.111309
2022-08-23T02:53:06.560Z,51.111305
2022-08-23T02:54:06.606Z,51.111324
2022-08-23T02:55:06.626Z,51.111336
2022-08-23T02:56:12.936Z,51.111324
2022-08-23T02:57:07.570Z,51.111317
2022-08-23T02:58:06.597Z,51.111320
2022-08-23T02:59:06.561Z,51.111343
2022-08-23T03:00:06.572Z,51.111301
2022-08-23T03:01:06.595Z,51.111286
2022-08-23T03:02:06.594Z,51.111309
2022-08-23T03:03:06.566Z,51.111320
2022-08-23T03:04:06.535Z,51.111320
2022-08-23T03:05:06.527Z,51.111343
2022-08-23T03:06:24.612Z,51.111343
2022-08-23T03:07:07.540Z,51.111328
2022-08-23T03:08:06.443Z,51.111347
2022-08-23T03:09:06.408Z,51.111343
2022-08-23T03:10:06.471Z,51.111347
2022-08-23T03:11:09.775Z,51.111294
2022-08-23T03:12:06.417Z,51.111336
2022-08-23T03:13:06.480Z,51.111301
2022-08-23T03:14:06.586Z,51.111340
2022-08-23T03:15:06.465Z,51.111290
2022-08-23T03:16:06.476Z,51.111294
2022-08-23T03:17:06.470Z,51.111301
2022-08-23T03:18:06.449Z,51.111324
2022-08-23T03:19:06.402Z,51.111343
2022-08-23T03:20:06.406Z,51.111328
2022-08-23T03:21:06.399Z,51.111336
2022-08-23T03:22:06.412Z,51.111313
2022-08-23T03:23:06.417Z,51.111256
2022-08-23T03:24:10.170Z,51.111301
2022-08-23T03:25:07.429Z,51.111271
2022-08-23T03:26:06.423Z,51.111298
2022-08-23T03:27:06.422Z,51.111294
2022-08-23T03:28:06.348Z,51.111286
2022-08-23T03:29:06.359Z,51.111233
2022-08-23T03:30:06.346Z,51.111256
2022-08-23T03:31:07.252Z,51.111313
2022-08-23T03:32:06.354Z,51.111290
2022-08-23T03:33:06.383Z,51.111294
2022-08-23T03:34:06.302Z,51.111259
2022-08-23T03:35:06.989Z,51.111275
2022-08-23T03:36:07.283Z,51.111301
2022-08-23T03:37:06.371Z,51.111271
2022-08-23T03:38:06.320Z,51.111248
2022-08-23T03:39:06.251Z,51.111252
2022-08-23T03:40:06.309Z,51.111252
2022-08-23T03:41:06.273Z,51.111240
2022-08-23T03:42:06.304Z,51.111248
2022-08-23T03:43:06.324Z,51.111240
2022-08-23T03:44:06.250Z,51.111214
2022-08-23T03:45:06.263Z,51.111229
2022-08-23T03:46:06.236Z,51.111240
2022-08-23T03:47:06.256Z,51.111256
2022-08-23T03:48:06.236Z,51.111217
2022-08-23T03:49:06.260Z,51.111252
2022-08-23T03:50:06.193Z,51.111271
2022-08-23T03:51:06.259Z,51.111275
2022-08-23T03:52:06.168Z,51.111294
2022-08-23T03:53:06.188Z,51.111279
2022-08-23T03:54:06.251Z,51.111309
2022-08-23T03:55:06.162Z,51.111214
2022-08-23T03:56:06.185Z,51.111214
2022-08-23T03:57:06.141Z,51.111275
2022-08-23T03:58:06.221Z,51.111256
2022-08-23T03:59:06.122Z,51.111229
2022-08-23T04:00:06.056Z,51.111237
2022-08-23T04:01:06.070Z,51.111244
2022-08-23T04:02:06.104Z,51.111271
2022-08-23T04:03:06.027Z,51.111263
2022-08-23T04:04:06.249Z,51.111244
2022-08-23T04:05:06.117Z,51.111237
2022-08-23T04:06:06.107Z,51.111237
2022-08-23T04:07:06.129Z,51.111244
2022-08-23T04:08:06.084Z,51.111271
2022-08-23T04:09:06.068Z,51.111294
2022-08-23T04:10:06.131Z,51.111279
2022-08-23T04:11:06.065Z,51.111210
2022-08-23T04:12:17.264Z,51.111221
2022-08-23T04:13:06.987Z,51.111233
2022-08-23T04:14:06.062Z,51.111221
2022-08-23T04:15:06.060Z,51.111206
2022-08-23T04:16:06.027Z,51.111206
2022-08-23T04:17:06.042Z,51.111202
2022-08-23T04:18:05.999Z,51.111191
2022-08-23T04:19:06.064Z,51.111210
2022-08-23T04:20:06.075Z,51.111229
2022-08-23T04:21:06.074Z,51.111237
2022-08-23T04:22:06.008Z,51.111240
2022-08-23T04:23:06.086Z,51.111225
2022-08-23T04:24:05.999Z,51.111202
2022-08-23T04:25:10.125Z,51.111198
2022-08-23T04:26:06.932Z,51.111225
2022-08-23T04:27:05.956Z,51.111237
2022-08-23T04:28:05.984Z,51.111229
2022-08-23T04:29:05.947Z,51.111248
2022-08-23T04:30:05.959Z,51.111282
2022-08-23T04:31:06.951Z,51.111256
2022-08-23T04:32:07.789Z,51.111248
2022-08-23T04:33:10.634Z,51.111275
2022-08-23T04:34:05.925Z,51.111286
2022-08-23T04:35:05.931Z,51.111271
2022-08-23T04:36:05.941Z,51.111256
2022-08-23T04:37:09.382Z,51.111252
2022-08-23T04:38:24.631Z,51.111301
2022-08-23T04:39:06.782Z,51.111233
2022-08-23T04:40:05.947Z,51.111244
2022-08-23T04:41:05.936Z,51.111252
2022-08-23T04:42:06.955Z,51.111210
2022-08-23T04:43:05.852Z,51.111195
2022-08-23T04:44:05.897Z,51.111214
2022-08-23T04:45:05.852Z,51.111221
2022-08-23T04:46:05.925Z,51.111244
2022-08-23T04:47:05.747Z,51.111233
2022-08-23T04:48:05.754Z,51.111256
2022-08-23T04:49:05.736Z,51.111237
2022-08-23T04:50:05.771Z,51.111221
2022-08-23T04:51:06.015Z,51.111237
2022-08-23T04:52:05.745Z,51.111221
2022-08-23T04:53:05.827Z,51.111229
2022-08-23T04:54:05.721Z,51.111214
2022-08-23T04:55:05.752Z,51.111191
2022-08-23T04:56:05.780Z,51.111210
2022-08-23T04:57:05.781Z,51.111202
2022-08-23T04:58:05.763Z,51.111183
2022-08-23T04:59:05.729Z,51.111217
2022-08-23T05:00:05.751Z,51.111191
2022-08-23T05:01:05.769Z,51.111176
2022-08-23T05:02:05.747Z,51.111244
2022-08-23T05:03:05.738Z,51.111233
2022-08-23T05:04:05.746Z,51.111217
2022-08-23T05:05:05.738Z,51.111240
2022-08-23T05:06:05.696Z,51.111210
2022-08-23T05:07:05.791Z,51.111187
2022-08-23T05:08:05.725Z,51.111244
2022-08-23T05:09:05.752Z,51.111202
2022-08-23T05:10:05.655Z,51.111244
2022-08-23T05:11:05.632Z,51.111221
2022-08-23T05:12:05.724Z,51.111259
2022-08-23T05:13:05.681Z,51.111267
2022-08-23T05:14:05.638Z,51.111248
2022-08-23T05:15:05.612Z,51.111217
2022-08-23T05:16:05.616Z,51.111153
2022-08-23T05:17:05.676Z,51.111221
2022-08-23T05:18:05.676Z,51.111237
2022-08-23T05:19:05.586Z,51.111225
2022-08-23T05:20:05.652Z,51.111225
2022-08-23T05:21:05.651Z,51.111191
2022-08-23T05:22:05.643Z,51.111179
2022-08-23T05:23:05.617Z,51.111156
2022-08-23T05:24:05.594Z,51.111164
2022-08-23T05:25:05.618Z,51.111153
2022-08-23T05:26:05.581Z,51.111168
2022-08-23T05:27:05.597Z,51.111176
2022-08-23T05:28:05.672Z,51.111229
2022-08-23T05:29:05.550Z,51.111195
2022-08-23T05:30:05.501Z,51.111217
2022-08-23T05:31:05.429Z,51.111237
2022-08-23T05:32:05.437Z,51.111263
2022-08-23T05:33:05.491Z,51.111259
2022-08-23T05:34:05.433Z,51.111210
2022-08-23T05:35:05.414Z,51.111256
2022-08-23T05:36:05.426Z,51.111233
2022-08-23T05:37:05.422Z,51.111248
2022-08-23T05:38:05.425Z,51.111240
2022-08-23T05:39:05.366Z,51.111240
2022-08-23T05:40:05.402Z,51.111252
2022-08-23T05:41:06.945Z,51.111248
2022-08-23T05:42:05.381Z,51.111244
2022-08-23T05:43:05.415Z,51.111221
2022-08-23T05:44:05.335Z,51.111221
2022-08-23T05:45:05.450Z,51.111217
2022-08-23T05:46:05.323Z,51.111240
2022-08-23T05:47:11.251Z,51.111256
2022-08-23T05:48:06.342Z,51.111221
2022-08-23T05:49:05.315Z,51.111244
2022-08-23T05:50:05.404Z,51.111244
2022-08-23T05:51:05.421Z,51.111237
2022-08-23T05:52:05.367Z,51.111217
2022-08-23T05:53:05.803Z,51.111202
2022-08-23T05:54:05.415Z,51.111225
2022-08-23T05:55:05.446Z,51.111240
2022-08-23T05:56:05.338Z,51.111233
2022-08-23T05:57:05.344Z,51.111275
2022-08-23T05:58:05.336Z,51.111259
2022-08-23T05:59:05.363Z,51.111279
2022-08-23T06:00:05.321Z,51.111252
2022-08-23T06:01:06.359Z,51.111221
2022-08-23T06:02:05.289Z,51.111214
2022-08-23T06:03:05.262Z,51.111233
2022-08-23T06:04:05.314Z,51.111252
2022-08-23T06:05:05.278Z,51.111221
2022-08-23T06:06:05.255Z,51.111252
2022-08-23T06:07:05.298Z,51.111282
2022-08-23T06:08:05.182Z,51.111275
2022-08-23T06:09:05.318Z,51.111271
2022-08-23T06:10:05.302Z,51.111225
2022-08-23T06:11:05.254Z,51.111275
2022-08-23T06:12:05.298Z,51.111229
2022-08-23T06:13:05.218Z,51.111221
2022-08-23T06:14:05.349Z,51.111298
2022-08-23T06:15:05.192Z,51.111259
2022-08-23T06:16:14.630Z,51.111225
2022-08-23T06:17:06.204Z,51.111237
2022-08-23T06:18:05.180Z,51.111298
2022-08-23T06:19:05.193Z,51.111298
2022-08-23T06:20:05.221Z,51.111248
2022-08-23T06:21:05.179Z,51.111225
2022-08-23T06:22:05.159Z,51.111233
2022-08-23T06:23:05.213Z,51.111240
2022-08-23T06:24:05.179Z,51.111256
2022-08-23T06:25:09.150Z,51.111252
2022-08-23T06:26:06.110Z,51.111263
2022-08-23T06:27:05.093Z,51.111259
2022-08-23T06:28:05.116Z,51.111252
2022-08-23T06:29:05.214Z,51.111244
2022-08-23T06:30:05.093Z,51.111233
2022-08-23T06:31:05.125Z,51.111237
2022-08-23T06:32:05.118Z,51.111225
2022-08-23T06:33:05.083Z,51.111256
2022-08-23T06:34:05.154Z,51.111256
2022-08-23T06:35:33.155Z,51.111229
2022-08-23T06:36:05.953Z,51.111221
2022-08-23T06:37:05.040Z,51.111256
2022-08-23T06:38:05.029Z,51.111275
2022-08-23T06:39:05.016Z,51.111210
2022-08-23T06:40:05.145Z,51.111206
2022-08-23T06:41:05.459Z,51.111225
2022-08-23T06:42:13.271Z,51.111248
2022-08-23T06:43:07.003Z,51.111229
2022-08-23T06:44:04.895Z,51.111225
2022-08-23T06:45:04.932Z,51.111252
2022-08-23T06:46:04.894Z,51.111271
2022-08-23T06:47:04.925Z,51.111259
2022-08-23T06:48:04.879Z,51.111240
2022-08-23T06:49:04.862Z,51.111191
2022-08-23T06:50:04.944Z,51.111195
2022-08-23T06:51:04.852Z,51.111225
2022-08-23T06:52:04.827Z,51.111248
2022-08-23T06:53:07.151Z,51.111240
2022-08-23T06:54:05.826Z,51.111263
2022-08-23T06:55:04.794Z,51.111263
2022-08-23T06:56:04.892Z,51.111271
2022-08-23T06:57:04.832Z,51.111240
2022-08-23T06:58:04.876Z,51.111275
2022-08-23T06:59:04.830Z,51.111267
2022-08-23T07:00:04.827Z,51.111237
2022-08-23T07:01:04.941Z,51.111198
2022-08-23T07:02:04.918Z,51.111267
2022-08-23T07:03:04.949Z,51.111340
2022-08-23T07:04:04.824Z,51.111259
2022-08-23T07:05:04.780Z,51.111221
2022-08-23T07:06:04.883Z,51.111282
2022-08-23T07:07:08.286Z,51.111210
2022-08-23T07:08:06.753Z,51.111328
2022-08-23T07:09:04.770Z,51.111385
2022-08-23T07:10:04.812Z,51.111382
2022-08-23T07:11:04.777Z,51.111290
2022-08-23T07:12:04.873Z,51.111198
2022-08-23T07:13:04.779Z,51.111210
2022-08-23T07:14:04.719Z,51.111279
2022-08-23T07:15:04.734Z,51.111275
2022-08-23T07:16:04.773Z,51.111263
2022-08-23T07:17:04.772Z,51.111256
2022-08-23T07:18:04.719Z,51.111301
2022-08-23T07:19:04.707Z,51.111301
2022-08-23T07:20:04.676Z,51.111282
2022-08-23T07:21:04.733Z,51.111259
2022-08-23T07:22:04.735Z,51.111290
2022-08-23T07:23:04.688Z,51.111309
2022-08-23T07:24:04.673Z,51.111263
2022-08-23T07:25:04.683Z,51.111248
2022-08-23T07:26:04.684Z,51.111267
2022-08-23T07:27:04.680Z,51.111271
2022-08-23T07:28:08.612Z,51.111282
2022-08-23T07:29:05.635Z,51.111279
2022-08-23T07:30:04.603Z,51.111256
2022-08-23T07:31:04.644Z,51.111263
2022-08-23T07:32:05.794Z,51.111259
2022-08-23T07:33:04.689Z,51.111259
2022-08-23T07:34:04.633Z,51.111263
2022-08-23T07:35:04.647Z,51.111263
2022-08-23T07:36:04.717Z,51.111271
2022-08-23T07:37:11.171Z,51.111259
2022-08-23T07:38:05.583Z,51.111286
2022-08-23T07:39:04.562Z,51.111286
2022-08-23T07:40:04.636Z,51.111275
2022-08-23T07:41:04.582Z,51.111271
2022-08-23T07:42:22.785Z,51.111294
2022-08-23T07:43:05.494Z,51.111279
2022-08-23T07:44:04.540Z,51.111271
2022-08-23T07:45:04.508Z,51.111279
2022-08-23T07:46:05.561Z,51.111286
2022-08-23T07:47:04.515Z,51.111290
2022-08-23T07:48:04.692Z,51.111290
2022-08-23T07:49:04.516Z,51.111301
2022-08-23T07:50:04.480Z,51.111324
2022-08-23T07:51:04.498Z,51.111374
2022-08-23T07:52:04.467Z,51.111347
2022-08-23T07:53:04.510Z,51.111298
2022-08-23T07:54:04.473Z,51.111286
2022-08-23T07:55:04.449Z,51.111282
2022-08-23T07:56:04.490Z,51.111275
2022-08-23T07:57:04.456Z,51.111366
2022-08-23T07:58:05.011Z,51.111362
2022-08-23T07:59:04.435Z,51.111320
2022-08-23T08:00:04.407Z,51.111347
2022-08-23T08:01:04.422Z,51.111378
2022-08-23T08:02:04.492Z,51.111389
2022-08-23T08:03:04.479Z,51.111336
2022-08-23T08:04:04.393Z,51.111305
2022-08-23T08:05:04.407Z,51.111324
2022-08-23T08:06:04.365Z,51.111332
2022-08-23T08:07:18.725Z,51.111279
2022-08-23T08:08:06.415Z,51.111248
2022-08-23T08:09:04.363Z,51.111290
2022-08-23T08:10:04.339Z,51.111301
2022-08-23T08:11:04.341Z,51.111259
2022-08-23T08:12:04.284Z,51.111256
2022-08-23T08:13:04.293Z,51.111313
2022-08-23T08:14:04.314Z,51.111279
2022-08-23T08:15:04.228Z,51.111267
2022-08-23T08:16:04.286Z,51.111343
2022-08-23T08:17:04.231Z,51.111351
2022-08-23T08:18:04.250Z,51.111362
2022-08-23T08:19:04.300Z,51.111294
2022-08-23T08:20:04.221Z,51.111305
2022-08-23T08:21:04.317Z,51.111221
2022-08-23T08:22:04.259Z,51.111198
2022-08-23T08:23:04.173Z,51.111374
2022-08-23T08:24:04.223Z,51.111370
2022-08-23T08:25:04.197Z,51.111324
2022-08-23T08:26:05.507Z,51.111259
2022-08-23T08:27:04.143Z,51.111233
2022-08-23T08:28:04.242Z,51.111210
2022-08-23T08:29:04.283Z,51.111225
2022-08-23T08:30:04.210Z,51.111240
2022-08-23T08:31:05.266Z,51.111259
2022-08-23T08:32:04.253Z,51.111252
2022-08-23T08:33:04.386Z,51.111244
2022-08-23T08:34:04.195Z,51.111305
2022-08-23T08:35:04.194Z,51.111179
2022-08-23T08:36:04.193Z,51.111256
2022-08-23T08:37:04.164Z,51.111305
2022-08-23T08:38:04.166Z,51.111263
2022-08-23T08:39:04.125Z,51.111252
2022-08-23T08:40:04.265Z,51.111187
2022-08-23T08:41:04.129Z,51.111263
2022-08-23T08:42:05.286Z,51.111328
2022-08-23T08:43:04.116Z,51.111328
2022-08-23T08:44:04.108Z,51.111210
2022-08-23T08:45:04.113Z,51.111290
2022-08-23T08:46:04.201Z,51.111248
2022-08-23T08:47:04.113Z,51.111305
2022-08-23T08:48:04.092Z,51.111294
2022-08-23T08:49:04.057Z,51.111275
2022-08-23T08:50:04.096Z,51.111183
2022-08-23T08:51:04.035Z,51.111153
2022-08-23T08:52:04.041Z,51.111153
2022-08-23T08:53:04.105Z,51.111137
2022-08-23T08:54:04.044Z,51.111198
2022-08-23T08:55:04.073Z,51.111271
2022-08-23T08:56:03.995Z,51.111271
2022-08-23T08:57:03.997Z,51.111217
2022-08-23T08:58:03.992Z,51.111252
2022-08-23T08:59:04.012Z,51.111237
2022-08-23T09:00:04.020Z,51.111233
2022-08-23T09:01:04.040Z,51.111252
2022-08-23T09:02:04.035Z,51.111286
2022-08-23T09:03:04.082Z,51.111279
2022-08-23T09:04:03.937Z,51.111271
2022-08-23T09:05:04.005Z,51.111301
2022-08-23T09:06:03.996Z,51.111252
2022-08-23T09:07:03.966Z,51.111217
2022-08-23T09:08:04.159Z,51.111195
2022-08-23T09:09:03.917Z,51.111256
2022-08-23T09:10:03.943Z,51.111275
2022-08-23T09:11:03.956Z,51.111317
2022-08-23T09:12:03.902Z,51.111244
2022-08-23T09:13:03.879Z,51.111240
2022-08-23T09:14:03.896Z,51.111263
2022-08-23T09:15:03.893Z,51.111267
2022-08-23T09:16:03.936Z,51.111248
2022-08-23T09:17:05.534Z,51.111244
2022-08-23T09:18:03.939Z,51.111244
2022-08-23T09:19:03.874Z,51.111259
2022-08-23T09:20:03.859Z,51.111248
2022-08-23T09:21:03.838Z,51.111252
2022-08-23T09:22:03.860Z,51.111271
2022-08-23T09:23:03.919Z,51.111256
2022-08-23T09:24:03.753Z,51.111240
2022-08-23T09:25:03.804Z,51.111240
2022-08-23T09:26:04.891Z,51.111259
2022-08-23T09:27:03.822Z,51.111248
2022-08-23T09:28:03.932Z,51.111259
2022-08-23T09:29:03.762Z,51.111248
2022-08-23T09:30:03.701Z,51.111256
2022-08-23T09:31:03.783Z,51.111256
2022-08-23T09:32:03.762Z,51.111271
2022-08-23T09:33:03.770Z,51.111263
2022-08-23T09:34:04.785Z,51.111267
2022-08-23T09:35:03.684Z,51.111248
2022-08-23T09:36:03.674Z,51.111233
2022-08-23T09:37:03.681Z,51.111244
2022-08-23T09:38:03.871Z,51.111256
2022-08-23T09:39:03.660Z,51.111248
2022-08-23T09:40:03.666Z,51.111252
2022-08-23T09:41:03.647Z,51.111248
2022-08-23T09:42:03.664Z,51.111252
2022-08-23T09:43:03.739Z,51.111256
2022-08-23T09:44:03.638Z,51.111252
2022-08-23T09:45:03.606Z,51.111248
2022-08-23T09:46:03.648Z,51.111237
2022-08-23T09:47:03.629Z,51.111233
2022-08-23T09:48:03.724Z,51.111248
2022-08-23T09:49:03.716Z,51.111233
2022-08-23T09:50:03.695Z,51.111233
2022-08-23T09:51:03.690Z,51.111233
2022-08-23T09:52:03.668Z,51.111259
2022-08-23T09:53:04.475Z,51.111256
2022-08-23T09:54:04.613Z,51.111256
2022-08-23T09:55:03.628Z,51.111252
2022-08-23T09:56:03.617Z,51.111263
2022-08-23T09:57:03.607Z,51.111225
2022-08-23T09:58:03.613Z,51.111237
2022-08-23T09:59:03.630Z,51.111244
2022-08-23T10:00:03.565Z,51.111202
2022-08-23T10:01:03.547Z,51.111195
2022-08-23T10:02:03.656Z,51.111225
2022-08-23T10:03:03.540Z,51.111248
2022-08-23T10:04:03.786Z,51.111256
2022-08-23T10:05:03.558Z,51.111279
2022-08-23T10:06:03.522Z,51.111240
2022-08-23T10:07:03.516Z,51.111244
2022-08-23T10:08:03.553Z,51.111240
2022-08-23T10:09:03.546Z,51.111195
2022-08-23T10:10:03.484Z,51.111256
2022-08-23T10:11:03.505Z,51.111282
2022-08-23T10:12:03.531Z,51.111267
2022-08-23T10:13:03.739Z,51.111256
2022-08-23T10:14:03.535Z,51.111237
2022-08-23T10:15:03.514Z,51.111225
2022-08-23T10:16:03.610Z,51.111221
2022-08-23T10:17:03.450Z,51.111206
2022-08-23T10:18:03.768Z,51.111210
2022-08-23T10:19:03.447Z,51.111206
2022-08-23T10:20:03.455Z,51.111248
2022-08-23T10:21:03.445Z,51.111263
2022-08-23T10:22:03.448Z,51.111259
2022-08-23T10:23:03.501Z,51.111229
2022-08-23T10:24:03.414Z,51.111237
2022-08-23T10:25:05.634Z,51.111225
2022-08-23T10:26:03.430Z,51.111244
2022-08-23T10:27:03.371Z,51.111252
2022-08-23T10:28:03.461Z,51.111229
2022-08-23T10:29:03.402Z,51.111256
2022-08-23T10:30:03.427Z,51.111263
2022-08-23T10:31:03.455Z,51.111214
2022-08-23T10:32:03.373Z,51.111214
2022-08-23T10:33:03.401Z,51.111259
2022-08-23T10:34:03.351Z,51.111271
2022-08-23T10:35:03.384Z,51.111256
2022-08-23T10:36:03.374Z,51.111237
2022-08-23T10:37:03.313Z,51.111217
2022-08-23T10:38:04.161Z,51.111286
2022-08-23T10:39:03.226Z,51.111248
2022-08-23T10:40:04.423Z,51.111240
2022-08-23T10:41:04.661Z,51.111237
2022-08-23T10:42:03.214Z,51.111259
2022-08-23T10:43:03.280Z,51.111229
2022-08-23T10:44:03.211Z,51.111248
2022-08-23T10:45:03.315Z,51.111290
2022-08-23T10:46:03.262Z,51.111298
2022-08-23T10:47:03.357Z,51.111237
2022-08-23T10:48:03.300Z,51.111279
2022-08-23T10:49:03.215Z,51.111229
2022-08-23T10:50:03.226Z,51.111229
2022-08-23T10:51:03.164Z,51.111256
2022-08-23T10:52:03.213Z,51.111168
2022-08-23T10:53:03.139Z,51.111233
2022-08-23T10:54:03.216Z,51.111332
2022-08-23T10:55:03.264Z,51.111256
2022-08-23T10:56:03.258Z,51.111237
2022-08-23T10:57:03.287Z,51.111168
2022-08-23T10:58:03.391Z,51.111168
2022-08-23T10:59:03.237Z,51.111317
2022-08-23T11:00:03.267Z,51.111332
2022-08-23T11:01:03.286Z,51.111259
2022-08-23T11:02:03.251Z,51.111282
2022-08-23T11:03:03.283Z,51.111279
2022-08-23T11:04:03.186Z,51.111275
2022-08-23T11:05:03.192Z,51.111248
2022-08-23T11:06:03.147Z,51.111271
2022-08-23T11:07:03.231Z,51.111217
2022-08-23T11:08:03.568Z,51.111263
2022-08-23T11:09:03.197Z,51.111313
2022-08-23T11:10:03.149Z,51.111233
2022-08-23T11:11:03.193Z,51.111206
2022-08-23T11:12:03.141Z,51.111286
2022-08-23T11:13:03.182Z,51.111259
2022-08-23T11:14:04.201Z,51.111217
2022-08-23T11:15:04.168Z,51.111294
2022-08-23T11:16:03.161Z,51.111217
2022-08-23T11:17:03.111Z,51.111191
2022-08-23T11:18:03.303Z,51.111229
2022-08-23T11:19:03.085Z,51.111271
2022-08-23T11:20:03.083Z,51.111252
2022-08-23T11:21:03.106Z,51.111271
2022-08-23T11:22:03.049Z,51.111343
2022-08-23T11:23:03.042Z,51.111217
2022-08-23T11:24:03.080Z,51.111172
2022-08-23T11:25:03.062Z,51.111179